createdAt,value
2017-08-15T00:00:51.447Z,17.63
2017-08-15T00:01:51.142Z,17.68
2017-08-15T00:02:51.132Z,17.6
2017-08-15T00:03:51.129Z,17.65
2017-08-15T00:04:51.434Z,17.65
2017-08-15T00:05:51.125Z,17.69
2017-08-15T00:06:51.423Z,17.66
2017-08-15T00:07:51.424Z,17.59
2017-08-15T00:08:51.418Z,17.5
2017-08-15T00:09:51.412Z,17.6
2017-08-15T00:10:51.105Z,17.54
2017-08-15T00:11:51.101Z,17.53
2017-08-15T00:12:51.102Z,17.47
2017-08-15T00:13:51.091Z,17.47
2017-08-15T00:14:51.091Z,17.44
2017-08-15T00:15:51.089Z,17.44
2017-08-15T00:16:51.087Z,17.49
2017-08-15T00:17:51.077Z,17.42
2017-08-15T00:18:51.082Z,17.46
2017-08-15T00:19:51.076Z,17.38
2017-08-15T00:20:51.071Z,17.41
2017-08-15T00:21:51.364Z,17.46
2017-08-15T00:22:51.368Z,17.41
2017-08-15T00:23:51.359Z,17.46
2017-08-15T00:24:51.359Z,17.39
2017-08-15T00:25:51.354Z,17.39
2017-08-15T00:26:51.348Z,17.32
2017-08-15T00:27:51.346Z,17.37
2017-08-15T00:28:51.037Z,17.38
2017-08-15T00:29:51.345Z,17.35
2017-08-15T00:30:51.335Z,17.42
2017-08-15T00:31:51.329Z,17.37
2017-08-15T00:32:51.335Z,17.37
2017-08-15T00:33:51.329Z,17.41
2017-08-15T00:34:51.321Z,17.38
2017-08-15T00:35:51.317Z,17.32
2017-08-15T00:36:51.314Z,17.28
2017-08-15T00:37:51.310Z,17.27
2017-08-15T00:38:51.308Z,17.31
2017-08-15T00:39:51.306Z,17.32
2017-08-15T00:40:51.300Z,17.31
2017-08-15T00:41:51.292Z,17.28
2017-08-15T00:42:50.990Z,17.27
2017-08-15T00:43:51.287Z,17.24
2017-08-15T00:44:51.281Z,17.24
2017-08-15T00:45:51.281Z,17.23
2017-08-15T00:46:51.280Z,17.19
2017-08-15T00:47:51.276Z,17.2
2017-08-15T00:48:51.269Z,17.2
2017-08-15T00:49:51.267Z,17.16
2017-08-15T00:50:50.955Z,17.16
2017-08-15T00:51:50.953Z,17.1
2017-08-15T00:52:51.255Z,17.16
2017-08-15T00:53:51.247Z,17.1
2017-08-15T00:54:50.942Z,17.16
2017-08-15T00:55:51.246Z,17.19
2017-08-15T00:56:51.239Z,17.14
2017-08-15T00:57:51.230Z,17.17
2017-08-15T00:58:51.229Z,17.13
2017-08-15T00:59:51.233Z,17.07
2017-08-15T01:00:50.913Z,17.09
2017-08-15T01:01:51.222Z,17.01
2017-08-15T01:02:51.217Z,17.09
2017-08-15T01:03:51.241Z,17.1
2017-08-15T01:04:51.217Z,17.05
2017-08-15T01:05:51.203Z,17.02
2017-08-15T01:06:51.204Z,17.07
2017-08-15T01:07:51.197Z,17.04
2017-08-15T01:08:51.195Z,17.02
2017-08-15T01:09:51.189Z,17.05
2017-08-15T01:10:50.890Z,17.04
2017-08-15T01:11:51.182Z,17.04
2017-08-15T01:12:51.176Z,17.05
2017-08-15T01:13:51.187Z,17.05
2017-08-15T01:14:51.170Z,17.13
2017-08-15T01:15:51.168Z,17.1
2017-08-15T01:16:51.160Z,17.02
2017-08-15T01:17:51.160Z,17.05
2017-08-15T01:18:51.156Z,16.95
2017-08-15T01:19:51.151Z,16.95
2017-08-15T01:20:51.146Z,17.01
2017-08-15T01:21:51.145Z,17.07
2017-08-15T01:22:51.146Z,16.94
2017-08-15T01:23:51.131Z,16.95
2017-08-15T01:24:51.134Z,16.97
2017-08-15T01:25:51.126Z,16.97
2017-08-15T01:26:51.127Z,16.94
2017-08-15T01:27:51.119Z,16.89
2017-08-15T01:28:51.117Z,16.86
2017-08-15T01:29:51.113Z,16.91
2017-08-15T01:30:51.115Z,16.86
2017-08-15T01:31:51.107Z,16.83
2017-08-15T01:32:51.102Z,16.82
2017-08-15T01:33:51.099Z,16.83
2017-08-15T01:34:51.098Z,16.89
2017-08-15T01:35:50.787Z,16.8
2017-08-15T01:36:51.084Z,16.83
2017-08-15T01:37:51.087Z,16.84
2017-08-15T01:38:51.084Z,16.8
2017-08-15T01:39:51.078Z,16.86
2017-08-15T01:40:51.074Z,16.84
2017-08-15T01:41:51.066Z,16.83
2017-08-15T01:42:51.065Z,16.84
2017-08-15T01:43:51.057Z,16.83
2017-08-15T01:44:51.058Z,16.89
2017-08-15T01:45:51.055Z,16.86
2017-08-15T01:46:51.048Z,16.79
2017-08-15T01:47:51.052Z,16.79
2017-08-15T01:48:51.043Z,16.73
2017-08-15T01:49:50.733Z,16.72
2017-08-15T01:50:51.035Z,16.72
2017-08-15T01:51:51.030Z,16.77
2017-08-15T01:52:50.719Z,16.77
2017-08-15T01:53:50.717Z,16.74
2017-08-15T01:54:51.017Z,16.82
2017-08-15T01:55:51.024Z,16.8
2017-08-15T01:56:51.016Z,16.76
2017-08-15T01:57:51.007Z,16.73
2017-08-15T01:58:50.698Z,16.74
2017-08-15T01:59:50.998Z,16.65
2017-08-15T02:00:50.998Z,16.72
2017-08-15T02:01:50.688Z,16.66
2017-08-15T02:02:51.004Z,16.61
2017-08-15T02:03:50.682Z,16.61
2017-08-15T02:04:50.982Z,16.59
2017-08-15T02:05:50.977Z,16.68
2017-08-15T02:06:50.976Z,16.62
2017-08-15T02:07:50.969Z,16.68
2017-08-15T02:08:50.964Z,16.69
2017-08-15T02:09:50.962Z,16.65
2017-08-15T02:10:50.957Z,16.64
2017-08-15T02:11:50.952Z,16.68
2017-08-15T02:12:50.964Z,16.66
2017-08-15T02:13:50.945Z,16.58
2017-08-15T02:14:50.939Z,16.58
2017-08-15T02:15:50.937Z,16.61
2017-08-15T02:16:50.931Z,16.59
2017-08-15T02:17:50.933Z,16.61
2017-08-15T02:18:50.926Z,16.59
2017-08-15T02:19:50.311Z,16.62
2017-08-15T02:20:50.918Z,16.59
2017-08-15T02:21:50.608Z,16.59
2017-08-15T02:22:50.910Z,16.64
2017-08-15T02:23:50.907Z,16.59
2017-08-15T02:24:50.897Z,16.65
2017-08-15T02:25:50.903Z,16.61
2017-08-15T02:26:50.897Z,16.62
2017-08-15T02:27:50.892Z,16.58
2017-08-15T02:28:50.885Z,16.68
2017-08-15T02:29:50.882Z,16.51
2017-08-15T02:30:50.885Z,16.54
2017-08-15T02:31:50.571Z,16.61
2017-08-15T02:32:50.871Z,16.62
2017-08-15T02:33:50.258Z,16.61
2017-08-15T02:34:50.861Z,16.54
2017-08-15T02:35:50.862Z,16.61
2017-08-15T02:36:50.852Z,16.61
2017-08-15T02:37:50.854Z,16.58
2017-08-15T02:38:50.878Z,16.59
2017-08-15T02:39:50.545Z,16.54
2017-08-15T02:40:50.229Z,16.5
2017-08-15T02:41:50.839Z,16.51
2017-08-15T02:42:50.839Z,16.51
2017-08-15T02:43:50.525Z,16.5
2017-08-15T02:44:50.827Z,16.58
2017-08-15T02:45:50.515Z,16.61
2017-08-15T02:46:50.816Z,16.54
2017-08-15T02:47:50.819Z,16.64
2017-08-15T02:48:50.809Z,16.62
2017-08-15T02:49:50.805Z,16.58
2017-08-15T02:50:50.500Z,16.54
2017-08-15T02:51:50.806Z,16.51
2017-08-15T02:52:50.801Z,16.49
2017-08-15T02:53:50.179Z,16.55
2017-08-15T02:54:50.478Z,16.58
2017-08-15T02:55:50.784Z,16.5
2017-08-15T02:56:50.781Z,16.57
2017-08-15T02:57:50.773Z,16.58
2017-08-15T02:58:50.466Z,16.54
2017-08-15T02:59:50.771Z,16.51
2017-08-15T03:00:50.455Z,16.43
2017-08-15T03:01:50.477Z,16.54
2017-08-15T03:02:50.456Z,16.44
2017-08-15T03:03:50.447Z,16.46
2017-08-15T03:04:50.444Z,16.4
2017-08-15T03:05:50.442Z,16.4
2017-08-15T03:06:50.128Z,16.4
2017-08-15T03:07:50.127Z,16.44
2017-08-15T03:08:50.122Z,16.46
2017-08-15T03:09:50.117Z,16.36
2017-08-15T03:10:50.112Z,16.39
2017-08-15T03:11:50.723Z,16.31
2017-08-15T03:12:50.713Z,16.4
2017-08-15T03:13:50.712Z,16.32
2017-08-15T03:14:50.707Z,16.29
2017-08-15T03:15:50.703Z,16.31
2017-08-15T03:16:50.706Z,16.26
2017-08-15T03:17:50.696Z,16.25
2017-08-15T03:18:50.693Z,16.28
2017-08-15T03:19:50.690Z,16.34
2017-08-15T03:20:50.381Z,16.29
2017-08-15T03:21:50.680Z,16.26
2017-08-15T03:22:50.368Z,16.26
2017-08-15T03:23:50.668Z,16.17
2017-08-15T03:24:50.362Z,16.17
2017-08-15T03:25:50.358Z,16.18
2017-08-15T03:26:50.351Z,16.17
2017-08-15T03:27:50.658Z,16.16
2017-08-15T03:28:50.652Z,16.24
2017-08-15T03:29:50.653Z,16.18
2017-08-15T03:30:50.649Z,16.17
2017-08-15T03:31:50.642Z,16.24
2017-08-15T03:32:50.332Z,16.12
2017-08-15T03:33:50.634Z,16.16
2017-08-15T03:34:50.636Z,16.09
2017-08-15T03:35:50.625Z,16.18
2017-08-15T03:36:50.622Z,16.1
2017-08-15T03:37:50.615Z,16.08
2017-08-15T03:38:50.307Z,16.08
2017-08-15T03:39:50.311Z,16.12
2017-08-15T03:40:50.603Z,16.16
2017-08-15T03:41:50.602Z,16.08
2017-08-15T03:42:50.291Z,16.06
2017-08-15T03:43:50.298Z,15.96
2017-08-15T03:44:50.593Z,16.03
2017-08-15T03:45:50.580Z,16.06
2017-08-15T03:46:50.275Z,15.98
2017-08-15T03:47:50.576Z,16.05
2017-08-15T03:48:50.569Z,15.99
2017-08-15T03:49:50.568Z,16.02
2017-08-15T03:50:50.259Z,15.99
2017-08-15T03:51:50.258Z,16
2017-08-15T03:52:50.556Z,16
2017-08-15T03:53:50.272Z,15.99
2017-08-15T03:54:50.241Z,16
2017-08-15T03:55:50.239Z,16
2017-08-15T03:56:50.547Z,15.96
2017-08-15T03:57:50.236Z,16
2017-08-15T03:58:50.228Z,16
2017-08-15T03:59:50.223Z,15.96
2017-08-15T04:00:50.217Z,15.91
2017-08-15T04:01:50.214Z,15.99
2017-08-15T04:02:50.524Z,15.96
2017-08-15T04:03:50.512Z,15.99
2017-08-15T04:04:50.507Z,16.02
2017-08-15T04:05:50.503Z,15.94
2017-08-15T04:06:50.501Z,16.03
2017-08-15T04:07:50.495Z,15.88
2017-08-15T04:08:50.513Z,15.99
2017-08-15T04:09:50.182Z,15.9
2017-08-15T04:10:50.478Z,15.99
2017-08-15T04:11:50.483Z,15.9
2017-08-15T04:12:50.473Z,15.96
2017-08-15T04:13:50.472Z,16.05
2017-08-15T04:14:50.467Z,15.99
2017-08-15T04:15:50.464Z,16.03
2017-08-15T04:16:50.463Z,16.08
2017-08-15T04:17:50.457Z,16.08
2017-08-15T04:18:50.452Z,16.13
2017-08-15T04:19:50.454Z,16.16
2017-08-15T04:20:50.450Z,16.18
2017-08-15T04:21:50.440Z,16.22
2017-08-15T04:22:50.439Z,16.26
2017-08-15T04:23:50.428Z,16.25
2017-08-15T04:24:50.434Z,16.29
2017-08-15T04:25:50.429Z,16.28
2017-08-15T04:26:50.423Z,16.36
2017-08-15T04:27:50.413Z,16.31
2017-08-15T04:28:50.108Z,16.39
2017-08-15T04:29:50.104Z,16.47
2017-08-15T04:30:50.406Z,16.4
2017-08-15T04:31:50.395Z,16.41
2017-08-15T04:32:50.394Z,16.34
2017-08-15T04:33:50.387Z,16.44
2017-08-15T04:34:50.390Z,16.4
2017-08-15T04:35:50.387Z,16.51
2017-08-15T04:36:50.381Z,16.54
2017-08-15T04:37:50.376Z,16.5
2017-08-15T04:38:50.370Z,16.55
2017-08-15T04:39:50.366Z,16.5
2017-08-15T04:40:49.749Z,16.5
2017-08-15T04:41:50.361Z,16.62
2017-08-15T04:42:50.360Z,16.55
2017-08-15T04:43:50.351Z,16.61
2017-08-15T04:44:50.344Z,16.58
2017-08-15T04:45:50.349Z,16.62
2017-08-15T04:46:50.343Z,16.72
2017-08-15T04:47:50.333Z,16.68
2017-08-15T04:48:50.329Z,16.65
2017-08-15T04:49:50.334Z,16.69
2017-08-15T04:50:50.017Z,16.74
2017-08-15T04:51:50.316Z,16.74
2017-08-15T04:52:50.313Z,16.74
2017-08-15T04:53:50.310Z,16.86
2017-08-15T04:54:50.314Z,16.86
2017-08-15T04:55:50.321Z,16.94
2017-08-15T04:56:50.297Z,16.95
2017-08-15T04:57:50.295Z,17.13
2017-08-15T04:58:50.292Z,17.22
2017-08-15T04:59:50.293Z,17.31
2017-08-15T05:00:50.286Z,17.31
2017-08-15T05:01:50.281Z,17.38
2017-08-15T05:02:50.277Z,17.41
2017-08-15T05:03:50.278Z,17.3
2017-08-15T05:04:50.269Z,17.3
2017-08-15T05:05:50.261Z,17.37
2017-08-15T05:06:50.287Z,17.41
2017-08-15T05:07:50.258Z,17.54
2017-08-15T05:08:50.250Z,17.63
2017-08-15T05:09:50.245Z,17.56
2017-08-15T05:10:50.243Z,17.54
2017-08-15T05:11:50.248Z,17.59
2017-08-15T05:12:50.237Z,17.56
2017-08-15T05:13:50.235Z,17.54
2017-08-15T05:14:49.922Z,17.66
2017-08-15T05:15:50.229Z,17.95
2017-08-15T05:16:50.229Z,18.19
2017-08-15T05:17:50.218Z,18.7
2017-08-15T05:18:50.210Z,19.04
2017-08-15T05:19:49.909Z,19.48
2017-08-15T05:20:50.208Z,19.85
2017-08-15T05:21:50.213Z,20.17
2017-08-15T05:22:50.202Z,20.48
2017-08-15T05:23:50.204Z,20.75
2017-08-15T05:24:50.190Z,21.01
2017-08-15T05:25:50.185Z,21.15
2017-08-15T05:26:50.187Z,21.53
2017-08-15T05:27:50.182Z,21.62
2017-08-15T05:28:50.190Z,21.63
2017-08-15T05:29:50.180Z,21.54
2017-08-15T05:30:49.865Z,21.25
2017-08-15T05:31:50.169Z,21.01
2017-08-15T05:32:49.865Z,21
2017-08-15T05:33:50.165Z,20.96
2017-08-15T05:34:50.161Z,20.88
2017-08-15T05:35:50.157Z,20.73
2017-08-15T05:36:49.869Z,20.46
2017-08-15T05:37:50.149Z,20.17
2017-08-15T05:38:50.148Z,20.14
2017-08-15T05:39:50.143Z,20.03
2017-08-15T05:40:50.138Z,19.92
2017-08-15T05:41:50.140Z,19.85
2017-08-15T05:42:50.135Z,19.78
2017-08-15T05:43:50.122Z,19.75
2017-08-15T05:44:50.157Z,19.63
2017-08-15T05:45:50.123Z,19.59
2017-08-15T05:46:50.116Z,19.49
2017-08-15T05:47:50.110Z,19.52
2017-08-15T05:48:50.110Z,19.49
2017-08-15T05:49:50.133Z,19.49
2017-08-15T05:50:50.104Z,19.67
2017-08-15T05:51:50.101Z,20.04
2017-08-15T05:52:50.098Z,20.56
2017-08-15T05:53:49.786Z,21.01
2017-08-15T05:54:49.786Z,21.48
2017-08-15T05:55:50.088Z,21.63
2017-08-15T05:56:49.776Z,21.66
2017-08-15T05:57:50.084Z,21.5
2017-08-15T05:58:50.073Z,21.23
2017-08-15T05:59:49.792Z,21.13
2017-08-15T06:00:50.074Z,21.04
2017-08-15T06:01:49.769Z,21.08
2017-08-15T06:02:50.071Z,21.37
2017-08-15T06:03:50.063Z,21.6
2017-08-15T06:04:50.064Z,21.68
2017-08-15T06:05:50.058Z,21.62
2017-08-15T06:06:50.060Z,21.54
2017-08-15T06:07:50.058Z,21.48
2017-08-15T06:08:50.053Z,21.5
2017-08-15T06:09:49.743Z,21.29
2017-08-15T06:10:50.045Z,21.14
2017-08-15T06:11:50.041Z,21.1
2017-08-15T06:12:50.040Z,21.03
2017-08-15T06:13:50.043Z,21.15
2017-08-15T06:14:50.044Z,21.13
2017-08-15T06:15:49.741Z,21.35
2017-08-15T06:16:50.030Z,21.91
2017-08-15T06:17:50.026Z,22.65
2017-08-15T06:18:50.064Z,23.34
2017-08-15T06:19:50.020Z,24.16
2017-08-15T06:20:50.014Z,24.82
2017-08-15T06:21:50.014Z,25.39
2017-08-15T06:22:50.015Z,25.85
2017-08-15T06:23:50.012Z,26.3
2017-08-15T06:24:50.013Z,26.52
2017-08-15T06:25:50.006Z,26.71
2017-08-15T06:26:49.997Z,26.85
2017-08-15T06:27:50.004Z,27.05
2017-08-15T06:28:49.997Z,27.44
2017-08-15T06:29:49.994Z,27.82
2017-08-15T06:30:49.991Z,27.68
2017-08-15T06:31:49.993Z,27.38
2017-08-15T06:32:49.992Z,27.38
2017-08-15T06:33:49.687Z,27.55
2017-08-15T06:34:49.682Z,27.78
2017-08-15T06:35:49.983Z,28.12
2017-08-15T06:36:49.988Z,28.4
2017-08-15T06:37:49.983Z,28.6
2017-08-15T06:38:49.980Z,28.83
2017-08-15T06:39:49.984Z,28.97
2017-08-15T06:40:49.979Z,29.15
2017-08-15T06:41:49.983Z,29.22
2017-08-15T06:42:49.979Z,29.35
2017-08-15T06:43:49.976Z,29.44
2017-08-15T06:44:49.980Z,29.47
2017-08-15T06:45:49.977Z,29.59
2017-08-15T06:46:49.978Z,29.76
2017-08-15T06:47:49.981Z,29.69
2017-08-15T06:48:49.977Z,29.61
2017-08-15T06:49:49.974Z,29.68
2017-08-15T06:50:49.670Z,29.8
2017-08-15T06:51:49.975Z,29.74
2017-08-15T06:52:49.971Z,29.74
2017-08-15T06:53:49.967Z,29.81
2017-08-15T06:54:49.670Z,29.84
2017-08-15T06:55:49.662Z,30.02
2017-08-15T06:56:49.663Z,30.21
2017-08-15T06:57:49.971Z,30.38
2017-08-15T06:58:49.967Z,30.62
2017-08-15T06:59:49.967Z,30.63
2017-08-15T07:00:49.964Z,30.67
2017-08-15T07:01:49.965Z,30.69
2017-08-15T07:02:49.675Z,30.71
2017-08-15T07:03:49.963Z,30.81
2017-08-15T07:04:49.662Z,30.73
2017-08-15T07:05:49.964Z,30.95
2017-08-15T07:06:49.961Z,31.14
2017-08-15T07:07:49.655Z,31.18
2017-08-15T07:08:49.960Z,31.26
2017-08-15T07:09:49.978Z,31.29
2017-08-15T07:10:49.959Z,31.22
2017-08-15T07:11:49.952Z,31.39
2017-08-15T07:12:49.956Z,31.45
2017-08-15T07:13:49.953Z,31.6
2017-08-15T07:14:49.950Z,31.63
2017-08-15T07:15:49.956Z,31.52
2017-08-15T07:16:49.954Z,31.52
2017-08-15T07:17:49.945Z,31.59
2017-08-15T07:18:49.642Z,31.77
2017-08-15T07:19:49.945Z,31.9
2017-08-15T07:20:49.949Z,32.16
2017-08-15T07:21:49.943Z,32.26
2017-08-15T07:22:49.953Z,32.08
2017-08-15T07:23:49.945Z,32.2
2017-08-15T07:24:49.943Z,32.17
2017-08-15T07:25:49.945Z,32.12
2017-08-15T07:26:49.940Z,32.22
2017-08-15T07:27:49.942Z,32.29
2017-08-15T07:28:49.939Z,32.29
2017-08-15T07:29:49.635Z,32.31
2017-08-15T07:30:49.934Z,32.22
2017-08-15T07:31:49.932Z,32.22
2017-08-15T07:32:49.939Z,32.08
2017-08-15T07:33:49.933Z,32.29
2017-08-15T07:34:49.626Z,32.35
2017-08-15T07:35:49.928Z,32.41
2017-08-15T07:36:49.925Z,32.39
2017-08-15T07:37:49.930Z,32.41
2017-08-15T07:38:49.619Z,32.44
2017-08-15T07:39:49.927Z,32.6
2017-08-15T07:40:49.617Z,32.85
2017-08-15T07:41:49.932Z,32.93
2017-08-15T07:42:49.921Z,33.1
2017-08-15T07:43:49.919Z,33.08
2017-08-15T07:44:49.928Z,33.29
2017-08-15T07:45:49.922Z,33.19
2017-08-15T07:46:49.917Z,33.26
2017-08-15T07:47:49.917Z,33.38
2017-08-15T07:48:49.922Z,33.35
2017-08-15T07:49:49.918Z,33.38
2017-08-15T07:50:49.605Z,33.35
2017-08-15T07:51:49.911Z,33.31
2017-08-15T07:52:49.602Z,33.33
2017-08-15T07:53:49.904Z,33.35
2017-08-15T07:54:49.905Z,33.39
2017-08-15T07:55:49.902Z,33.39
2017-08-15T07:56:49.898Z,33.45
2017-08-15T07:57:49.902Z,33.57
2017-08-15T07:58:49.903Z,33.65
2017-08-15T07:59:49.592Z,33.67
2017-08-15T08:00:49.892Z,33.57
2017-08-15T08:01:49.888Z,33.48
2017-08-15T08:02:49.922Z,33.44
2017-08-15T08:03:49.893Z,33.42
2017-08-15T08:04:49.888Z,33.44
2017-08-15T08:05:49.885Z,33.66
2017-08-15T08:06:49.896Z,33.87
2017-08-15T08:07:49.577Z,33.89
2017-08-15T08:08:49.930Z,34.03
2017-08-15T08:09:49.280Z,34.18
2017-08-15T08:10:49.585Z,34.33
2017-08-15T08:11:49.886Z,34.41
2017-08-15T08:12:49.885Z,34.32
2017-08-15T08:13:49.886Z,34.24
2017-08-15T08:14:49.880Z,34.22
2017-08-15T08:15:49.881Z,34.28
2017-08-15T08:16:49.878Z,34.19
2017-08-15T08:17:49.875Z,34.13
2017-08-15T08:18:49.877Z,34.18
2017-08-15T08:19:49.870Z,34.14
2017-08-15T08:20:49.869Z,34.18
2017-08-15T08:21:49.872Z,34.25
2017-08-15T08:22:49.868Z,34.24
2017-08-15T08:23:49.558Z,34.5
2017-08-15T08:24:49.863Z,34.62
2017-08-15T08:25:49.555Z,34.65
2017-08-15T08:26:49.854Z,34.62
2017-08-15T08:27:49.854Z,34.59
2017-08-15T08:28:49.549Z,34.53
2017-08-15T08:29:49.852Z,34.21
2017-08-15T08:30:49.542Z,33.67
2017-08-15T08:31:49.541Z,33.16
2017-08-15T08:32:49.842Z,32.72
2017-08-15T08:33:49.533Z,32.17
2017-08-15T08:34:49.531Z,31.64
2017-08-15T08:35:49.841Z,31.28
2017-08-15T08:36:49.830Z,30.86
2017-08-15T08:37:49.525Z,30.31
2017-08-15T08:38:49.830Z,29.99
2017-08-15T08:39:49.522Z,29.57
2017-08-15T08:40:49.826Z,29.3
2017-08-15T08:41:49.823Z,28.93
2017-08-15T08:42:49.513Z,28.77
2017-08-15T08:43:49.512Z,28.56
2017-08-15T08:44:49.508Z,28.45
2017-08-15T08:45:49.815Z,28.38
2017-08-15T08:46:49.810Z,28.23
2017-08-15T08:47:49.813Z,28.15
2017-08-15T08:48:49.811Z,28.09
2017-08-15T08:49:49.498Z,27.95
2017-08-15T08:50:49.194Z,27.85
2017-08-15T08:51:49.801Z,27.76
2017-08-15T08:52:49.808Z,27.64
2017-08-15T08:53:49.516Z,27.72
2017-08-15T08:54:49.794Z,27.73
2017-08-15T08:55:49.791Z,27.63
2017-08-15T08:56:49.790Z,27.68
2017-08-15T08:57:49.785Z,27.73
2017-08-15T08:58:49.785Z,27.68
2017-08-15T08:59:49.782Z,27.75
2017-08-15T09:00:49.804Z,27.6
2017-08-15T09:01:49.782Z,27.68
2017-08-15T09:02:49.773Z,27.68
2017-08-15T09:03:49.779Z,27.72
2017-08-15T09:04:49.775Z,27.76
2017-08-15T09:05:49.772Z,27.83
2017-08-15T09:06:49.765Z,27.81
2017-08-15T09:07:49.764Z,27.82
2017-08-15T09:08:49.774Z,27.86
2017-08-15T09:09:49.762Z,27.9
2017-08-15T09:10:49.762Z,27.86
2017-08-15T09:11:49.755Z,27.76
2017-08-15T09:12:49.759Z,27.79
2017-08-15T09:13:49.753Z,27.82
2017-08-15T09:14:49.751Z,27.91
2017-08-15T09:15:49.747Z,27.75
2017-08-15T09:16:49.739Z,27.76
2017-08-15T09:17:49.745Z,27.82
2017-08-15T09:18:49.738Z,27.79
2017-08-15T09:19:49.734Z,27.76
2017-08-15T09:20:49.729Z,27.79
2017-08-15T09:21:49.733Z,27.88
2017-08-15T09:22:49.728Z,27.93
2017-08-15T09:23:49.724Z,27.79
2017-08-15T09:24:49.723Z,27.76
2017-08-15T09:25:49.728Z,27.73
2017-08-15T09:26:49.724Z,27.63
2017-08-15T09:27:49.717Z,27.58
2017-08-15T09:28:49.715Z,27.63
2017-08-15T09:29:49.715Z,27.55
2017-08-15T09:30:49.407Z,27.6
2017-08-15T09:31:49.708Z,27.66
2017-08-15T09:32:49.708Z,27.58
2017-08-15T09:33:49.704Z,27.52
2017-08-15T09:34:49.707Z,27.52
2017-08-15T09:35:49.702Z,27.52
2017-08-15T09:36:49.699Z,27.57
2017-08-15T09:37:49.700Z,27.58
2017-08-15T09:38:49.692Z,27.45
2017-08-15T09:39:49.692Z,27.41
2017-08-15T09:40:49.690Z,27.38
2017-08-15T09:41:49.687Z,27.43
2017-08-15T09:42:49.385Z,27.44
2017-08-15T09:43:49.685Z,27.57
2017-08-15T09:44:49.683Z,27.53
2017-08-15T09:45:49.678Z,27.53
2017-08-15T09:46:49.671Z,27.41
2017-08-15T09:47:49.686Z,27.5
2017-08-15T09:48:49.676Z,27.43
2017-08-15T09:49:49.673Z,27.53
2017-08-15T09:50:49.664Z,27.53
2017-08-15T09:51:49.356Z,27.55
2017-08-15T09:52:49.663Z,27.61
2017-08-15T09:53:49.660Z,27.64
2017-08-15T09:54:49.658Z,27.64
2017-08-15T09:55:49.650Z,27.83
2017-08-15T09:56:49.659Z,27.78
2017-08-15T09:57:49.651Z,27.79
2017-08-15T09:58:49.645Z,27.91
2017-08-15T09:59:49.641Z,27.98
2017-08-15T10:00:49.640Z,27.98
2017-08-15T10:01:49.637Z,28.08
2017-08-15T10:02:49.643Z,27.93
2017-08-15T10:03:49.630Z,27.88
2017-08-15T10:04:49.632Z,27.83
2017-08-15T10:05:49.318Z,27.81
2017-08-15T10:06:49.626Z,27.73
2017-08-15T10:07:49.349Z,27.71
2017-08-15T10:08:49.628Z,27.64
2017-08-15T10:09:49.311Z,27.76
2017-08-15T10:10:49.617Z,27.76
2017-08-15T10:11:49.614Z,27.81
2017-08-15T10:12:49.308Z,27.81
2017-08-15T10:13:49.610Z,27.94
2017-08-15T10:14:49.609Z,27.91
2017-08-15T10:15:49.601Z,27.82
2017-08-15T10:16:49.604Z,27.79
2017-08-15T10:17:49.600Z,27.83
2017-08-15T10:18:49.599Z,27.64
2017-08-15T10:19:49.598Z,27.61
2017-08-15T10:20:49.595Z,27.5
2017-08-15T10:21:49.621Z,27.53
2017-08-15T10:22:49.585Z,27.48
2017-08-15T10:23:49.278Z,27.61
2017-08-15T10:24:49.584Z,27.67
2017-08-15T10:25:49.583Z,27.52
2017-08-15T10:26:49.587Z,27.55
2017-08-15T10:27:49.578Z,27.55
2017-08-15T10:28:49.573Z,27.61
2017-08-15T10:29:49.576Z,27.52
2017-08-15T10:30:49.566Z,27.6
2017-08-15T10:31:49.570Z,27.57
2017-08-15T10:32:49.568Z,27.57
2017-08-15T10:33:49.561Z,27.52
2017-08-15T10:34:49.595Z,27.57
2017-08-15T10:35:49.555Z,27.52
2017-08-15T10:36:49.586Z,27.48
2017-08-15T10:37:49.552Z,27.48
2017-08-15T10:38:49.548Z,27.43
2017-08-15T10:39:49.549Z,27.4
2017-08-15T10:40:49.252Z,27.38
2017-08-15T10:41:49.543Z,27.38
2017-08-15T10:42:49.539Z,27.28
2017-08-15T10:43:49.540Z,27.26
2017-08-15T10:44:49.534Z,27.19
2017-08-15T10:45:49.539Z,27.11
2017-08-15T10:46:49.532Z,27.07
2017-08-15T10:47:49.528Z,27.05
2017-08-15T10:48:49.529Z,27.05
2017-08-15T10:49:49.526Z,27.03
2017-08-15T10:50:49.219Z,27.15
2017-08-15T10:51:49.527Z,27.3
2017-08-15T10:52:49.516Z,27.41
2017-08-15T10:53:49.518Z,27.52
2017-08-15T10:54:49.513Z,27.52
2017-08-15T10:55:49.513Z,27.53
2017-08-15T10:56:49.206Z,27.5
2017-08-15T10:57:49.505Z,27.57
2017-08-15T10:58:49.501Z,27.53
2017-08-15T10:59:49.507Z,27.55
2017-08-15T11:00:49.500Z,27.58
2017-08-15T11:01:49.498Z,27.57
2017-08-15T11:02:49.498Z,27.55
2017-08-15T11:03:49.492Z,27.47
2017-08-15T11:04:49.490Z,27.5
2017-08-15T11:05:49.489Z,27.58
2017-08-15T11:06:49.487Z,27.53
2017-08-15T11:07:49.487Z,27.57
2017-08-15T11:08:49.171Z,27.68
2017-08-15T11:09:49.480Z,27.66
2017-08-15T11:10:49.473Z,27.67
2017-08-15T11:11:49.469Z,27.73
2017-08-15T11:12:49.475Z,27.79
2017-08-15T11:13:49.467Z,27.72
2017-08-15T11:14:49.466Z,27.66
2017-08-15T11:15:49.489Z,27.67
2017-08-15T11:16:49.460Z,27.75
2017-08-15T11:17:49.459Z,27.75
2017-08-15T11:18:49.467Z,27.78
2017-08-15T11:19:49.454Z,27.78
2017-08-15T11:20:49.452Z,27.72
2017-08-15T11:21:49.451Z,27.78
2017-08-15T11:22:49.447Z,27.71
2017-08-15T11:23:49.157Z,27.67
2017-08-15T11:24:48.828Z,27.68
2017-08-15T11:25:49.134Z,27.58
2017-08-15T11:26:49.132Z,27.64
2017-08-15T11:27:49.433Z,27.57
2017-08-15T11:28:49.429Z,27.55
2017-08-15T11:29:49.121Z,27.5
2017-08-15T11:30:49.432Z,27.52
2017-08-15T11:31:49.447Z,27.61
2017-08-15T11:32:48.810Z,27.52
2017-08-15T11:33:48.807Z,27.58
2017-08-15T11:34:49.423Z,27.6
2017-08-15T11:35:49.412Z,27.73
2017-08-15T11:36:49.411Z,27.76
2017-08-15T11:37:49.415Z,27.75
2017-08-15T11:38:49.407Z,27.73
2017-08-15T11:39:49.404Z,27.83
2017-08-15T11:40:49.099Z,27.81
2017-08-15T11:41:49.119Z,27.78
2017-08-15T11:42:49.402Z,27.68
2017-08-15T11:43:49.397Z,27.75
2017-08-15T11:44:49.393Z,27.68
2017-08-15T11:45:49.085Z,27.81
2017-08-15T11:46:49.388Z,27.72
2017-08-15T11:47:49.387Z,27.83
2017-08-15T11:48:49.382Z,27.79
2017-08-15T11:49:49.377Z,27.82
2017-08-15T11:50:49.380Z,27.79
2017-08-15T11:51:49.069Z,27.86
2017-08-15T11:52:49.378Z,27.82
2017-08-15T11:53:49.373Z,27.72
2017-08-15T11:54:49.365Z,27.78
2017-08-15T11:55:49.364Z,27.68
2017-08-15T11:56:49.363Z,27.76
2017-08-15T11:57:49.056Z,27.75
2017-08-15T11:58:49.354Z,27.73
2017-08-15T11:59:49.373Z,27.81
2017-08-15T12:00:49.356Z,27.82
2017-08-15T12:01:49.043Z,27.85
2017-08-15T12:02:48.733Z,27.93
2017-08-15T12:03:48.734Z,27.83
2017-08-15T12:04:49.036Z,27.86
2017-08-15T12:05:49.033Z,27.88
2017-08-15T12:06:49.033Z,27.94
2017-08-15T12:07:49.337Z,27.86
2017-08-15T12:08:49.333Z,27.95
2017-08-15T12:09:49.020Z,27.95
2017-08-15T12:10:49.020Z,27.95
2017-08-15T12:11:49.017Z,28.01
2017-08-15T12:12:49.017Z,27.97
2017-08-15T12:13:49.011Z,28.08
2017-08-15T12:14:49.017Z,28.04
2017-08-15T12:15:49.318Z,28.06
2017-08-15T12:16:49.313Z,28.1
2017-08-15T12:17:49.310Z,28.09
2017-08-15T12:18:49.313Z,28.13
2017-08-15T12:19:49.001Z,28.16
2017-08-15T12:20:49.300Z,28.1
2017-08-15T12:21:48.996Z,28.19
2017-08-15T12:22:48.989Z,28.09
2017-08-15T12:23:48.992Z,28.15
2017-08-15T12:24:49.293Z,28.22
2017-08-15T12:25:49.298Z,28.19
2017-08-15T12:26:48.985Z,28.28
2017-08-15T12:27:48.980Z,28.18
2017-08-15T12:28:49.291Z,28.19
2017-08-15T12:29:49.286Z,28.16
2017-08-15T12:30:48.972Z,28.16
2017-08-15T12:31:49.279Z,28.13
2017-08-15T12:32:49.281Z,28.19
2017-08-15T12:33:48.966Z,28.25
2017-08-15T12:34:49.270Z,28.27
2017-08-15T12:35:49.265Z,28.09
2017-08-15T12:36:48.960Z,28.13
2017-08-15T12:37:48.957Z,28.16
2017-08-15T12:38:49.256Z,28.15
2017-08-15T12:39:48.948Z,28.12
2017-08-15T12:40:48.955Z,28.2
2017-08-15T12:41:48.945Z,28.27
2017-08-15T12:42:48.945Z,28.15
2017-08-15T12:43:48.941Z,28.13
2017-08-15T12:44:48.937Z,28.18
2017-08-15T12:45:48.938Z,28.23
2017-08-15T12:46:48.932Z,28.22
2017-08-15T12:47:48.932Z,28.22
2017-08-15T12:48:49.241Z,28.19
2017-08-15T12:49:49.241Z,28.18
2017-08-15T12:50:49.231Z,28.33
2017-08-15T12:51:49.229Z,28.34
2017-08-15T12:52:49.226Z,28.27
2017-08-15T12:53:48.612Z,28.38
2017-08-15T12:54:49.248Z,28.31
2017-08-15T12:55:49.222Z,28.35